Nearby METAR Reports

 

KMSY - New Orleans,Louisiana, USA
Distance from station: E 11.7mi, 18.8km
Updated: Mon, 21-Jan-2019 10:53am CST
Few Clouds
Few Clouds
 Wind from E
Wind: E 13 mph , 20 km/h
Temperature: 50°F , 10°C
Wind Chill: 45°F , 7°C
Dew Point: 37°F , 3°C
Humidity: 62%
Barometer: 30.41 inHg , 1029.8 hPa
Clouds: Few Clouds
Visibility: 10 miles , 16 km
Cloud details: Few Clouds 25000 ft
2019/01/21 16:53 KMSY 211653Z 10011KT 10SM FEW250 10/03 A3041 RMK AO2 SLP300 T01000028
KAPS - Reserve,Louisiana, USA
Distance from station: W 8.4mi, 13.5km
Updated: Mon, 21-Jan-2019 10:55am CST
Clear
Clear
 Wind from ESE
Wind: ESE 10 mph , 17 km/h
Temperature: 50°F , 10°C
Wind Chill: 46°F , 8°C
Dew Point: 36°F , 2°C
Humidity: 58%
Barometer: 30.41 inHg , 1029.8 hPa
Clouds: Clear
Visibility: 10 miles , 16 km
2019/01/21 16:55 KAPS 211655Z AUTO 11009KT 10SM CLR 10/02 A3041 RMK AO2 T01020018
 
KHDC - Hammond,Louisiana, USA
Distance from station: N 31.5mi, 50.6km
Updated: Mon, 21-Jan-2019 10:55am CST
Clear
Clear
 Wind from ESE
Wind: ESE 5 mph , 7 km/h
Temperature: 46°F , 8°C
Wind Chill: 44°F , 7°C
Dew Point: 28°F , -2°C
Humidity: 50%
Barometer: 30.43 inHg , 1030.5 hPa
Clouds: Clear
Visibility: 10 miles , 16 km
2019/01/21 16:55 KHDC 211655Z AUTO 12004KT 10SM CLR 08/M02 A3043 RMK AO2
KHUM - Houma,Louisiana, USA
Distance from station: SW 36.54mi, 58.8km
Updated: Mon, 21-Jan-2019 10:47am CST
Clear
Clear
 Wind from E
Wind: E 12 mph , 19 km/h
Temperature: 52°F , 11°C
Dew Point: 39°F , 4°C
Humidity: 62%
Barometer: 30.40 inHg , 1029.5 hPa
Clouds: Clear
Visibility: 7 miles , 11 km
2019/01/21 16:47 KHUM 211647Z 10010KT 7SM CLR 11/04 A3040